Time;durP1;ratioP1;P1;durP2;ratioP2;P2;SDS_P1;SDS_P2;PMS_P1;PMS_P2;Temp;Humidity;BMP_temperature;BMP_pressure;BME280_temperature;BME280_humidity;BME280_pressure;Samples;Min_cycle;Max_cycle;Signal;HPM_P1;HPM_P2
2023/11/20 00:02:56;;;;;;;8.73;3.97;;;7.60;99.90;;;8.17;100.00;97788.94;10112142;28;20254;-65
2023/11/20 00:08:00;;;;;;;9.18;3.78;;;7.60;99.90;;;7.92;100.00;97774.59;10213225;28;20230;-63
2023/11/20 00:13:03;;;;;;;6.65;3.50;;;7.40;99.90;;;7.87;100.00;97778.53;10189662;28;20713;-63
2023/11/20 00:18:07;;;;;;;10.00;3.23;;;7.40;99.90;;;7.82;100.00;97782.41;10139036;28;20238;-65
2023/11/20 00:23:11;;;;;;;9.00;3.67;;;7.30;99.90;;;7.84;100.00;97773.19;10138495;28;20245;-63
2023/11/20 00:28:14;;;;;;;10.55;3.78;;;7.30;99.90;;;7.81;100.00;97784.09;10135295;28;20253;-65
2023/11/20 00:33:17;;;;;;;9.20;3.43;;;7.40;99.90;;;7.79;100.00;97787.31;10187006;28;20249;-65
2023/11/20 00:38:22;;;;;;;10.93;3.90;;;7.30;99.90;;;7.79;100.00;97783.09;10131410;28;20360;-64
2023/11/20 00:43:25;;;;;;;13.10;4.37;;;7.30;99.90;;;7.84;100.00;97784.28;10153123;28;20235;-63
2023/11/20 00:48:28;;;;;;;10.23;3.73;;;7.40;99.90;;;7.82;100.00;97784.97;10155911;28;20745;-64
2023/11/20 00:53:33;;;;;;;7.90;3.40;;;7.30;99.90;;;7.87;100.00;97781.06;10148367;28;20231;-65
2023/11/20 00:58:36;;;;;;;9.80;3.47;;;7.40;99.90;;;7.79;100.00;97779.66;10132539;28;20599;-65
2023/11/20 01:03:39;;;;;;;10.90;3.67;;;7.30;99.90;;;7.71;100.00;97771.53;10116997;28;20244;-63
2023/11/20 01:08:44;;;;;;;8.03;3.17;;;7.20;99.90;;;7.68;100.00;97781.50;10120651;28;20602;-63
2023/11/20 01:13:47;;;;;;;9.73;3.20;;;7.20;99.90;;;7.65;100.00;97786.38;10125943;28;20237;-63
2023/11/20 01:18:51;;;;;;;9.57;3.90;;;7.10;99.90;;;7.59;100.00;97784.31;10123068;28;20230;-63
2023/11/20 01:23:56;;;;;;;6.50;3.40;;;7.10;99.90;;;7.57;100.00;97788.41;10131247;28;20237;-64
2023/11/20 01:28:59;;;;;;;10.60;3.47;;;7.10;99.90;;;7.73;100.00;97787.78;10124059;28;20595;-63
2023/11/20 01:34:02;;;;;;;7.20;3.20;;;7.20;99.90;;;7.67;100.00;97778.06;10130539;28;20237;-63
2023/11/20 01:39:08;;;;;;;10.97;3.40;;;7.20;99.90;;;7.71;100.00;97776.59;10188374;28;20696;-63
2023/11/20 01:44:12;;;;;;;9.37;3.37;;;7.20;99.90;;;7.82;100.00;97770.56;10121310;28;20237;-64
2023/11/20 01:49:15;;;;;;;7.57;3.43;;;7.30;99.90;;;7.90;100.00;97782.13;10117593;28;20257;-64
2023/11/20 01:54:20;;;;;;;10.77;4.00;;;7.40;99.90;;;8.00;100.00;97778.53;10131673;28;20241;-63
2023/11/20 01:59:25;;;;;;;8.73;3.60;;;7.50;99.90;;;8.02;100.00;97763.38;10176675;28;20244;-64
2023/11/20 02:04:29;;;;;;;10.90;4.10;;;7.50;99.90;;;8.12;100.00;97758.06;10121905;28;20249;-64
2023/11/20 02:09:34;;;;;;;8.40;3.43;;;7.60;99.90;;;8.10;100.00;97752.91;10122287;28;20241;-64
2023/11/20 02:14:37;;;;;;;8.00;3.47;;;7.60;99.90;;;8.12;100.00;97751.31;10120076;28;20322;-64
2023/11/20 02:19:47;;;;;;;8.47;3.30;;;7.70;99.90;;;8.27;100.00;97750.53;10122882;28;20587;-64
2023/11/20 02:24:53;;;;;;;10.73;3.53;;;7.80;99.90;;;8.38;100.00;97752.09;10121177;28;20230;-64
2023/11/20 02:29:58;;;;;;;13.23;4.03;;;8.00;99.90;;;8.54;100.00;97731.94;10125304;28;20238;-64
2023/11/20 02:35:01;;;;;;;11.13;3.38;;;8.10;99.90;;;8.72;100.00;97738.97;10125496;28;20229;-63
2023/11/20 02:40:10;;;;;;;9.30;3.70;;;8.30;99.90;;;9.02;100.00;97735.78;10123754;28;20710;-63
2023/11/20 02:45:14;;;;;;;7.30;3.38;;;8.50;99.90;;;9.14;100.00;97734.75;10119724;28;20230;-64
2023/11/20 02:50:17;;;;;;;8.32;3.30;;;8.70;99.90;;;9.11;100.00;97734.56;10118389;28;20246;-64
2023/11/20 02:55:21;;;;;;;9.23;3.40;;;8.80;99.90;;;9.24;100.00;97729.41;10119201;28;20238;-64
2023/11/20 03:00:26;;;;;;;7.18;3.38;;;8.90;99.90;;;9.55;100.00;97721.91;10121308;28;20285;-64
2023/11/20 03:05:29;;;;;;;6.93;3.33;;;9.00;99.90;;;9.49;100.00;97716.44;10128064;28;20333;-64
2023/11/20 03:10:32;;;;;;;4.97;2.90;;;9.10;99.90;;;9.55;100.00;97710.81;10111081;28;20238;-64
2023/11/20 03:15:37;;;;;;;6.20;3.03;;;9.10;99.90;;;9.51;100.00;97714.00;10126881;28;20239;-64
2023/11/20 03:20:42;;;;;;;7.20;3.13;;;9.10;99.90;;;9.73;100.00;97709.34;10123578;28;20666;-64
2023/11/20 03:25:45;;;;;;;8.18;3.25;;;9.20;99.90;;;9.72;100.00;97711.81;10137023;28;20241;-66
2023/11/20 03:30:49;;;;;;;11.13;2.80;;;9.30;99.90;;;9.72;100.00;97707.56;10122472;28;20236;-66
2023/11/20 03:35:52;;;;;;;6.95;3.35;;;9.30;99.90;;;9.78;100.00;97705.38;10126645;28;20247;-65
2023/11/20 03:40:56;;;;;;;8.40;3.00;;;9.30;99.90;;;9.75;100.00;97710.28;10155718;28;20226;-64
2023/11/20 03:46:00;;;;;;;6.63;3.50;;;9.30;99.90;;;9.76;100.00;97706.97;10154035;28;20625;-64
2023/11/20 03:51:04;;;;;;;6.13;2.55;;;9.30;99.90;;;9.73;100.00;97701.69;10142409;28;20336;-65
2023/11/20 03:56:08;;;;;;;6.78;2.80;;;9.20;99.90;;;9.73;100.00;97704.25;10197049;28;20287;-65
2023/11/20 04:01:13;;;;;;;6.72;2.72;;;9.30;99.90;;;9.84;100.00;97704.84;10127983;28;20258;-65
2023/11/20 04:06:16;;;;;;;8.75;3.28;;;9.30;99.90;;;9.75;100.00;97692.44;10123438;28;21729;-65
2023/11/20 04:11:20;;;;;;;7.03;3.20;;;9.30;99.90;;;9.72;100.00;97694.81;10122189;28;20756;-65
2023/11/20 04:16:24;;;;;;;5.15;2.63;;;9.30;99.90;;;9.71;100.00;97698.16;10123861;28;20238;-64
2023/11/20 04:21:29;;;;;;;6.18;3.08;;;9.20;99.90;;;9.84;100.00;97703.19;10128000;28;20284;-65
2023/11/20 04:26:34;;;;;;;8.48;2.90;;;9.30;99.90;;;9.88;100.00;97702.56;10139346;28;20227;-66
2023/11/20 04:31:38;;;;;;;5.97;3.03;;;9.30;99.90;;;9.98;100.00;97700.53;10174772;28;20240;-65
2023/11/20 04:36:41;;;;;;;7.43;3.03;;;9.40;99.90;;;9.82;100.00;97697.09;10124228;28;20768;-65
2023/11/20 04:41:45;;;;;;;8.25;3.20;;;9.30;99.90;;;9.78;100.00;97689.19;10123661;28;20245;-64
2023/11/20 04:46:49;;;;;;;6.38;2.65;;;9.30;99.90;;;9.82;100.00;97681.81;10121207;28;20231;-64
2023/11/20 04:51:54;;;;;;;5.10;2.83;;;9.30;99.90;;;9.72;100.00;97689.72;10128900;28;20231;-66
2023/11/20 04:56:59;;;;;;;7.82;3.03;;;9.20;99.90;;;9.76;100.00;97681.44;10147172;28;20226;-64
2023/11/20 05:02:04;;;;;;;8.10;2.90;;;9.20;99.90;;;9.78;100.00;97692.59;10124393;28;20237;-65
2023/11/20 05:07:07;;;;;;;7.03;3.03;;;9.20;99.90;;;9.73;100.00;97691.50;10123567;28;20234;-64
2023/11/20 05:12:11;;;;;;;8.93;3.22;;;9.20;99.90;;;9.76;100.00;97699.31;10132047;28;20333;-64
2023/11/20 05:17:18;;;;;;;5.82;2.63;;;9.20;99.90;;;9.66;100.00;97700.44;10174303;28;20874;-64
2023/11/20 05:22:22;;;;;;;5.93;3.13;;;9.10;99.90;;;9.69;100.00;97699.75;10198200;28;20234;-64
2023/11/20 05:27:25;;;;;;;6.10;3.15;;;9.10;99.90;;;9.63;100.00;97712.16;10184650;28;20238;-64
2023/11/20 05:32:29;;;;;;;5.60;2.58;;;9.00;99.90;;;9.59;100.00;97708.53;10132513;28;20238;-65
2023/11/20 05:37:32;;;;;;;9.27;3.33;;;9.10;99.90;;;9.58;100.00;97704.22;10168959;28;20661;-66
2023/11/20 05:42:36;;;;;;;5.30;3.10;;;9.00;99.90;;;9.61;100.00;97711.16;10115900;28;20729;-66
2023/11/20 05:47:40;;;;;;;7.47;4.18;;;9.00;99.90;;;9.54;100.00;97709.06;10189798;28;20265;-64
2023/11/20 05:52:44;;;;;;;7.82;3.65;;;9.00;99.90;;;9.57;100.00;97715.22;10193362;28;20761;-64
2023/11/20 05:57:47;;;;;;;7.10;4.38;;;9.00;99.90;;;9.57;100.00;97714.34;10118144;28;20313;-65
2023/11/20 06:02:51;;;;;;;7.60;3.67;;;9.00;99.90;;;9.55;100.00;97711.69;10116909;28;20257;-65
2023/11/20 06:07:55;;;;;;;9.07;4.00;;;9.00;99.90;;;9.54;100.00;97704.84;10187988;28;20242;-64
2023/11/20 06:12:58;;;;;;;7.00;3.58;;;9.00;99.90;;;9.50;100.00;97708.03;10190706;28;20240;-65
2023/11/20 06:18:03;;;;;;;6.65;3.08;;;8.90;99.90;;;9.53;100.00;97712.38;10124660;28;20239;-65
2023/11/20 06:23:08;;;;;;;6.70;2.95;;;9.00;99.90;;;9.53;100.00;97713.28;10115462;28;20277;-65
2023/11/20 06:28:11;;;;;;;4.85;3.15;;;8.90;99.90;;;9.50;100.00;97715.66;10118369;28;20706;-65
2023/11/20 06:33:16;;;;;;;8.35;3.30;;;8.90;99.90;;;9.50;100.00;97723.31;10123153;28;20234;-65
2023/11/20 06:38:19;;;;;;;6.65;2.95;;;8.90;99.90;;;9.54;100.00;97729.47;10157962;23;20233;-65
2023/11/20 06:43:22;;;;;;;11.25;3.80;;;9.00;99.90;;;9.57;100.00;97722.00;10188645;28;20225;-66
2023/11/20 06:48:27;;;;;;;7.90;3.22;;;9.00;99.90;;;9.73;100.00;97717.00;10305593;28;20275;-66
2023/11/20 06:53:30;;;;;;;9.70;2.92;;;9.10;99.90;;;9.71;100.00;97728.78;10405844;28;20237;-65
2023/11/20 06:58:35;;;;;;;10.38;3.33;;;9.10;99.90;;;9.81;100.00;97730.19;10407437;28;20236;-65
2023/11/20 07:03:42;;;;;;;6.80;2.78;;;9.20;99.90;;;9.97;100.00;97726.84;10405175;28;20221;-65
2023/11/20 07:08:47;;;;;;;5.53;2.72;;;9.40;99.90;;;9.98;100.00;97728.59;10412818;28;20229;-65
2023/11/20 07:13:50;;;;;;;9.13;3.08;;;9.50;99.90;;;9.92;100.00;97727.47;10406871;28;20728;-65
2023/11/20 07:18:54;;;;;;;7.40;3.38;;;9.50;99.90;;;9.97;100.00;97721.75;10407342;28;20230;-65
2023/11/20 07:24:01;;;;;;;7.40;2.92;;;9.50;99.90;;;10.01;100.00;97723.69;10407766;28;20244;-65
2023/11/20 07:29:05;;;;;;;6.60;2.97;;;9.50;99.90;;;10.08;100.00;97729.22;10407157;28;20225;-65
2023/11/20 07:34:09;;;;;;;6.95;2.80;;;9.50;99.90;;;10.13;100.00;97724.41;10406706;28;20230;-67
2023/11/20 07:39:13;;;;;;;5.53;2.40;;;9.50;99.90;;;10.14;100.00;97718.47;10403284;28;20265;-65
2023/11/20 07:44:16;;;;;;;8.73;2.80;;;9.50;99.90;;;10.31;100.00;97710.13;10400088;28;20284;-65
2023/11/20 07:49:20;;;;;;;6.75;2.92;;;9.60;99.90;;;10.29;100.00;97710.81;10405717;28;20611;-66
2023/11/20 07:54:27;;;;;;;5.80;2.58;;;9.70;99.90;;;10.36;100.00;97703.59;10403870;28;20230;-66
2023/11/20 07:59:30;;;;;;;5.20;2.65;;;9.80;99.90;;;10.42;100.00;97702.19;10403920;28;20238;-64
2023/11/20 08:04:35;;;;;;;6.70;2.88;;;9.80;99.90;;;10.57;100.00;97705.56;10400846;28;20229;-65
2023/11/20 08:09:38;;;;;;;9.48;3.92;;;10.00;99.90;;;10.58;100.00;97710.72;10398654;28;20325;-65
2023/11/20 08:14:42;;;;;;;6.90;3.28;;;10.00;99.90;;;10.69;98.45;97713.88;10397148;28;20773;-65
2023/11/20 08:19:46;;;;;;;5.47;2.50;;;10.10;99.90;;;10.83;98.01;97706.97;10397729;28;20229;-64
2023/11/20 08:24:49;;;;;;;4.95;2.60;;;10.20;99.90;;;10.82;96.25;97710.31;10404245;28;20229;-65
2023/11/20 08:29:54;;;;;;;6.07;2.58;;;10.20;99.90;;;10.82;91.07;97700.09;10404170;28;20340;-64
2023/11/20 08:34:58;;;;;;;5.05;2.42;;;10.30;99.90;;;10.84;93.80;97706.16;10401128;28;20245;-66
2023/11/20 08:40:02;;;;;;;7.70;2.65;;;10.30;99.90;;;10.81;93.81;97706.84;10395115;28;20611;-66
2023/11/20 08:45:07;;;;;;;8.75;3.45;;;10.20;99.90;;;10.99;92.68;97703.56;10396436;28;20217;-65
2023/11/20 08:50:14;;;;;;;11.73;3.13;;;10.30;99.90;;;11.00;92.15;97705.31;10396002;28;20748;-65
2023/11/20 08:55:17;;;;;;;6.65;2.83;;;10.40;99.90;;;10.97;92.42;97716.25;10393982;28;20230;-64
2023/11/20 09:00:20;;;;;;;7.05;2.58;;;10.40;99.90;;;11.23;90.59;97704.81;10394628;28;20313;-65
2023/11/20 09:05:25;;;;;;;5.18;2.63;;;10.50;99.90;;;11.27;90.78;97696.53;10396228;28;20368;-65
2023/11/20 09:10:28;;;;;;;10.90;2.75;;;10.50;99.90;;;11.32;90.08;97695.84;10393750;28;20249;-65
2023/11/20 09:15:31;;;;;;;7.25;2.70;;;10.60;99.90;;;11.21;92.10;97693.63;10394617;28;20233;-65
2023/11/20 09:20:36;;;;;;;8.52;3.00;;;10.60;99.90;;;11.54;90.17;97680.81;10394152;28;20234;-65
2023/11/20 09:25:42;;;;;;;5.55;2.58;;;10.80;99.90;;;11.57;90.87;97675.81;10394289;28;20701;-64
2023/11/20 09:30:45;;;;;;;8.85;3.08;;;10.90;99.90;;;11.74;89.96;97679.22;10393982;28;20303;-64
2023/11/20 09:35:50;;;;;;;6.93;2.78;;;11.00;99.90;;;11.94;88.39;97687.94;10393150;28;20279;-64
2023/11/20 09:40:56;;;;;;;6.38;2.75;;;11.30;99.90;;;11.95;86.32;97685.41;10393896;28;20214;-64
2023/11/20 09:46:01;;;;;;;9.52;3.08;;;11.40;99.90;;;12.12;84.45;97683.69;10395766;28;20237;-64
2023/11/20 09:51:09;;;;;;;7.18;2.72;;;11.50;99.90;;;12.15;86.17;97673.56;10397977;28;20218;-64
2023/11/20 09:56:17;;;;;;;5.70;2.63;;;11.60;99.90;;;12.40;85.00;97685.00;10396530;28;20595;-65
2023/11/20 10:01:21;;;;;;;7.28;2.83;;;12.10;99.90;;;12.92;80.39;97663.44;10394343;28;20236;-65
2023/11/20 10:06:30;;;;;;;7.90;3.08;;;12.60;99.90;;;13.08;80.74;97664.19;10399354;28;20218;-65
2023/11/20 10:11:34;;;;;;;5.78;2.40;;;12.60;99.90;;;13.16;78.76;97667.09;10399398;28;20269;-66
2023/11/20 10:16:39;;;;;;;7.00;2.90;;;12.80;99.90;;;13.62;77.25;97661.38;10394147;28;20616;-66
2023/11/20 10:21:47;;;;;;;6.50;2.80;;;13.10;99.90;;;13.65;74.91;97656.38;10404117;28;20241;-65
2023/11/20 10:26:52;;;;;;;8.00;2.80;;;13.30;99.90;;;13.83;75.01;97645.09;10397963;28;20284;-65
2023/11/20 10:31:58;;;;;;;7.05;2.80;;;13.40;99.90;;;13.87;71.57;97639.25;10397020;28;20280;-65
2023/11/20 10:37:09;;;;;;;6.60;2.85;;;13.30;99.90;;;14.04;73.05;97627.09;10394930;28;20300;-66
2023/11/20 10:42:15;;;;;;;5.57;2.38;;;13.50;99.90;;;13.86;70.48;97615.25;10398685;28;20232;-65
2023/11/20 10:47:20;;;;;;;8.90;2.58;;;13.40;99.90;;;13.67;71.66;97608.50;10395389;28;20225;-65
2023/11/20 10:52:29;;;;;;;6.03;2.53;;;12.90;99.90;;;13.69;71.92;97608.56;10391558;28;20226;-66
2023/11/20 10:57:34;;;;;;;5.88;2.40;;;13.00;99.90;;;13.64;71.00;97605.78;10395808;28;20249;-65
2023/11/20 11:02:39;;;;;;;5.40;2.83;;;13.10;99.90;;;13.64;70.27;97604.94;10399774;28;20225;-65
2023/11/20 11:07:44;;;;;;;4.30;2.42;;;13.10;99.90;;;13.51;71.75;97596.72;10401546;28;20295;-66
2023/11/20 11:12:47;;;;;;;4.15;2.05;;;12.90;99.90;;;13.33;71.32;97598.50;10390998;28;20226;-65
2023/11/20 11:18:04;;;;;;;8.38;2.53;;;12.80;99.90;;;13.42;73.37;97588.66;10397806;28;20265;-65
2023/11/20 11:23:10;;;;;;;4.00;2.63;;;12.70;99.90;;;13.32;73.69;97599.34;10396618;28;20232;-65
2023/11/20 11:28:17;;;;;;;5.05;2.63;;;12.50;99.90;;;12.91;77.06;97588.16;10409204;28;20329;-65
2023/11/20 11:34:17;;;;;;;8.75;2.80;;;12.30;99.90;;;12.15;87.56;97617.22;10399272;28;20689;-66
2023/11/20 11:39:31;;;;;;;4.75;2.30;;;11.60;99.90;;;11.44;95.01;97591.56;10404128;28;20222;-65
2023/11/20 11:44:46;;;;;;;4.75;2.25;;;10.80;99.90;;;10.97;100.00;97592.63;10395284;28;20352;-65
2023/11/20 11:49:51;;;;;;;3.97;2.60;;;10.60;99.90;;;10.89;100.00;97588.78;10406944;28;20236;-64
2023/11/20 11:55:24;;;;;;;3.22;2.38;;;10.60;99.90;;;10.78;100.00;97572.88;10401074;28;20608;-65
2023/11/20 12:00:30;;;;;;;5.53;2.65;;;10.40;99.90;;;10.54;100.00;97564.84;10403567;28;20237;-65
2023/11/20 12:06:13;;;;;;;4.15;2.30;;;10.20;99.90;;;10.58;100.00;97576.97;10405095;28;20222;-65
2023/11/20 12:11:53;;;;;;;6.07;3.05;;;10.10;99.90;;;10.57;100.00;97585.44;10401166;28;20307;-64
2023/11/20 12:17:02;;;;;;;3.50;2.30;;;10.10;99.90;;;10.52;100.00;97553.66;10322140;28;20221;-64
2023/11/20 12:22:08;;;;;;;6.72;2.58;;;10.00;99.90;;;10.53;100.00;97545.19;10391143;28;20226;-64
2023/11/20 12:27:13;;;;;;;3.55;2.67;;;10.10;99.90;;;10.52;100.00;97540.88;10396428;28;20356;-65
2023/11/20 12:32:16;;;;;;;9.65;3.17;;;10.00;99.90;;;10.41;100.00;97542.88;10398732;28;20229;-64
2023/11/20 12:37:20;;;;;;;5.95;3.33;;;10.00;99.90;;;10.48;100.00;97554.31;10394688;28;20228;-64
2023/11/20 12:42:26;;;;;;;3.67;1.95;;;10.10;99.90;;;10.60;100.00;97542.16;10395063;28;20705;-64
2023/11/20 12:47:29;;;;;;;3.60;2.00;;;10.20;99.90;;;10.84;100.00;97534.84;10393087;28;20300;-64
2023/11/20 12:52:32;;;;;;;2.15;2.00;;;10.40;99.90;;;10.96;100.00;97530.38;10395031;28;20415;-64
2023/11/20 12:57:38;;;;;;;2.35;1.77;;;10.60;99.90;;;10.80;100.00;97522.72;10395268;28;20230;-64
2023/11/20 13:02:52;;;;;;;2.60;1.70;;;10.50;99.90;;;10.75;100.00;97516.50;10397221;28;20735;-64
2023/11/20 13:07:57;;;;;;;2.67;2.13;;;10.50;99.90;;;10.63;100.00;97519.31;10396588;28;20403;-65
2023/11/20 13:13:11;;;;;;;4.00;1.50;;;10.40;99.90;;;10.86;100.00;97511.94;10391988;28;20222;-65
2023/11/20 13:18:16;;;;;;;2.38;1.92;;;10.40;99.90;;;10.77;100.00;97508.09;10397291;28;20316;-65
2023/11/20 13:23:22;;;;;;;1.88;1.60;;;10.40;99.90;;;10.81;100.00;97499.78;10397211;28;20226;-65
2023/11/20 13:28:30;;;;;;;3.35;1.73;;;10.40;99.90;;;10.78;100.00;97497.06;10393546;28;20232;-65
2023/11/20 13:33:35;;;;;;;4.63;1.88;;;10.40;99.90;;;10.72;100.00;97489.09;10392736;28;20225;-65
2023/11/20 13:38:39;;;;;;;4.25;1.85;;;10.30;99.90;;;10.66;100.00;97480.25;10399406;28;20224;-65
2023/11/20 13:43:44;;;;;;;2.03;1.75;;;10.30;99.90;;;10.65;100.00;97475.97;10397556;28;20218;-65
2023/11/20 13:48:47;;;;;;;3.22;1.90;;;10.20;99.90;;;10.74;100.00;97474.72;10394692;28;20232;-64
2023/11/20 13:53:51;;;;;;;2.65;2.13;;;10.30;99.90;;;10.64;100.00;97462.28;10399664;28;20308;-64
2023/11/20 13:58:55;;;;;;;2.40;2.22;;;10.20;99.90;;;10.68;100.00;97466.75;10394853;28;20236;-64
2023/11/20 14:03:58;;;;;;;4.10;2.35;;;10.20;99.90;;;10.69;100.00;97467.63;10397360;28;20230;-64
2023/11/20 14:09:02;;;;;;;3.80;2.50;;;10.20;99.90;;;10.71;100.00;97473.69;10395910;28;20249;-65
2023/11/20 14:14:07;;;;;;;3.78;2.30;;;10.20;99.90;;;10.65;100.00;97464.06;10395720;28;20225;-65
2023/11/20 14:19:13;;;;;;;3.60;2.25;;;10.10;99.90;;;10.68;100.00;97469.31;10396660;28;20225;-65
2023/11/20 14:24:16;;;;;;;5.22;3.03;;;10.20;99.90;;;10.85;100.00;97453.94;10392289;28;20269;-65
2023/11/20 14:29:20;;;;;;;2.63;2.40;;;10.30;99.90;;;10.82;100.00;97458.09;10396320;28;20241;-65
2023/11/20 14:34:23;;;;;;;3.72;2.20;;;10.30;99.90;;;10.91;100.00;97449.13;10399298;28;20301;-65
2023/11/20 14:39:27;;;;;;;4.03;2.08;;;10.40;99.90;;;11.21;100.00;97458.25;10398929;28;20242;-65
2023/11/20 14:44:32;;;;;;;4.60;1.98;;;10.60;99.90;;;11.09;97.27;97452.56;10389813;28;20236;-65
2023/11/20 14:49:36;;;;;;;4.28;2.17;;;10.60;99.90;;;11.12;97.61;97445.03;10403864;28;21010;-65
2023/11/20 14:54:42;;;;;;;2.72;1.60;;;10.60;99.90;;;11.09;93.09;97444.03;10392785;28;20218;-64
2023/11/20 14:59:47;;;;;;;3.50;2.45;;;10.60;99.90;;;10.87;95.19;97448.06;10401010;28;20248;-64
2023/11/20 15:04:50;;;;;;;3.53;1.90;;;10.40;99.90;;;10.86;96.41;97446.34;10401490;28;20231;-64
2023/11/20 15:09:54;;;;;;;3.70;1.98;;;10.40;99.90;;;10.82;98.62;97437.66;10398271;28;20320;-64
2023/11/20 15:14:58;;;;;;;3.75;1.80;;;10.40;99.90;;;10.75;97.83;97448.34;10394246;28;20351;-64
2023/11/20 15:20:01;;;;;;;3.67;2.90;;;10.30;99.90;;;10.56;99.83;97456.78;10399974;28;20668;-65
2023/11/20 15:25:07;;;;;;;6.60;2.47;;;10.10;99.90;;;10.45;98.67;97467.28;10401355;28;20233;-65
2023/11/20 15:30:15;;;;;;;2.58;1.95;;;10.00;99.90;;;10.30;100.00;97447.81;10392421;28;20363;-65
2023/11/20 15:35:18;;;;;;;2.60;2.20;;;9.90;99.90;;;10.05;100.00;97439.66;10396239;28;20734;-64
2023/11/20 15:40:22;;;;;;;3.33;2.60;;;9.60;99.90;;;9.92;100.00;97451.75;10402051;28;20287;-64
2023/11/20 15:45:26;;;;;;;3.97;2.45;;;9.40;99.90;;;9.79;100.00;97446.81;10395834;28;20279;-64
2023/11/20 15:50:29;;;;;;;2.80;2.60;;;9.30;99.90;;;9.67;100.00;97446.13;10395297;28;20283;-64
2023/11/20 15:55:33;;;;;;;2.95;2.75;;;9.20;99.90;;;9.53;100.00;97459.81;10398166;28;20257;-63
2023/11/20 16:00:37;;;;;;;6.43;4.50;;;9.00;99.90;;;9.44;100.00;97463.66;10403150;28;20225;-63
2023/11/20 16:05:41;;;;;;;4.60;4.13;;;8.90;99.90;;;9.33;100.00;97459.63;10400765;28;21289;-63
2023/11/20 16:10:44;;;;;;;5.30;4.78;;;8.80;99.90;;;9.31;100.00;97463.75;10398646;28;20232;-64
2023/11/20 16:15:49;;;;;;;3.97;3.60;;;8.80;99.90;;;9.41;100.00;97463.47;10399027;28;20230;-63
2023/11/20 16:20:52;;;;;;;5.70;4.53;;;8.90;99.90;;;9.35;100.00;97462.25;10397572;28;20225;-65
2023/11/20 16:25:55;;;;;;;5.57;5.07;;;8.90;99.90;;;9.40;100.00;97456.59;10395651;28;20229;-64
2023/11/20 16:31:00;;;;;;;4.45;4.15;;;8.90;99.90;;;9.41;100.00;97466.03;10398086;28;20230;-65
2023/11/20 16:36:04;;;;;;;4.45;3.17;;;8.80;99.90;;;9.41;100.00;97468.59;10401769;28;20252;-66
2023/11/20 16:41:07;;;;;;;4.60;2.95;;;8.80;99.90;;;9.42;100.00;97459.25;10388484;28;20535;-63
2023/11/20 16:46:11;;;;;;;4.25;2.63;;;8.80;99.90;;;9.40;100.00;97459.16;10397082;28;20253;-64
2023/11/20 16:51:15;;;;;;;5.15;2.42;;;8.80;99.90;;;9.42;100.00;97451.59;10397392;28;20228;-64
2023/11/20 16:56:18;;;;;;;3.90;3.55;;;8.80;99.90;;;9.38;100.00;97447.97;10395158;28;20226;-64
2023/11/20 17:01:23;;;;;;;13.90;9.70;;;8.80;99.90;;;9.51;100.00;97444.44;10394668;28;20237;-65
2023/11/20 17:06:27;;;;;;;29.13;26.13;;;8.80;99.90;;;9.39;100.00;97441.25;10397127;28;20765;-64
2023/11/20 17:11:30;;;;;;;18.75;14.60;;;8.80;99.90;;;9.32;100.00;97452.75;10394552;28;20229;-65
2023/11/20 17:16:34;;;;;;;39.55;27.25;;;8.70;99.90;;;9.32;100.00;97454.44;10394473;28;20233;-64
2023/11/20 17:21:38;;;;;;;29.17;21.40;;;8.70;99.90;;;9.35;100.00;97458.03;10403029;28;20888;-64
2023/11/20 17:26:41;;;;;;;19.45;15.95;;;8.70;99.90;;;9.32;100.00;97452.75;10400306;28;20234;-65
2023/11/20 17:31:45;;;;;;;17.92;15.52;;;8.70;99.90;;;9.22;100.00;97451.38;10404752;28;20241;-65
2023/11/20 17:36:49;;;;;;;15.45;11.88;;;8.60;99.90;;;9.12;100.00;97445.69;10401567;28;21768;-64
2023/11/20 17:41:53;;;;;;;13.50;10.65;;;8.50;99.90;;;9.02;100.00;97437.53;10400783;28;20225;-65
2023/11/20 17:46:58;;;;;;;9.43;8.30;;;8.40;99.90;;;8.94;100.00;97443.84;10401448;28;20228;-64
2023/11/20 17:52:02;;;;;;;12.52;11.23;;;8.30;99.90;;;8.96;100.00;97438.84;10400280;28;20233;-64
2023/11/20 17:57:07;;;;;;;11.15;10.00;;;8.40;99.90;;;8.97;100.00;97449.13;10395270;28;20260;-65
2023/11/20 18:02:11;;;;;;;10.20;7.55;;;8.40;99.90;;;8.94;100.00;97442.97;10395755;28;20238;-65
2023/11/20 18:07:15;;;;;;;10.73;8.50;;;8.30;99.90;;;8.95;100.00;97443.06;10396830;28;20233;-65
2023/11/20 18:12:19;;;;;;;8.98;8.00;;;8.40;99.90;;;8.91;100.00;97453.00;10397121;28;20256;-64
2023/11/20 18:17:24;;;;;;;8.82;7.97;;;8.30;99.90;;;9.00;100.00;97445.88;10395760;28;20237;-64
2023/11/20 18:22:28;;;;;;;10.77;9.77;;;8.40;99.90;;;8.95;100.00;97427.75;10398750;28;20240;-64
2023/11/20 18:27:31;;;;;;;10.13;9.00;;;8.40;99.90;;;8.94;100.00;97440.44;10397930;28;20800;-64
2023/11/20 18:32:36;;;;;;;9.68;8.80;;;8.40;99.90;;;9.00;100.00;97440.78;10401281;28;20225;-64
2023/11/20 18:37:42;;;;;;;10.80;9.90;;;8.40;99.90;;;9.05;100.00;97436.81;10401735;28;20287;-65
2023/11/20 18:42:45;;;;;;;6.45;5.95;;;8.50;99.90;;;9.18;100.00;97440.91;10400030;28;20260;-64
2023/11/20 18:47:51;;;;;;;10.00;6.72;;;8.50;99.90;;;9.13;100.00;97444.88;10404355;28;20229;-64
2023/11/20 18:52:54;;;;;;;20.15;16.77;;;8.50;99.90;;;8.98;100.00;97450.88;10397721;28;20683;-65
2023/11/20 18:57:57;;;;;;;14.80;11.88;;;8.40;99.90;;;8.90;100.00;97441.03;10402376;28;20231;-65
2023/11/20 19:03:01;;;;;;;7.85;7.05;;;8.30;99.90;;;8.94;100.00;97442.97;10405216;28;20666;-64
2023/11/20 19:08:05;;;;;;;6.57;5.03;;;8.40;99.90;;;8.88;100.00;97442.63;10397559;28;20616;-64
2023/11/20 19:13:09;;;;;;;6.22;5.10;;;8.30;99.90;;;8.91;100.00;97437.72;10402830;28;20669;-65
2023/11/20 19:18:14;;;;;;;6.78;4.72;;;8.40;99.90;;;8.91;100.00;97443.69;10406399;28;20218;-66
2023/11/20 19:23:19;;;;;;;5.28;3.85;;;8.40;99.90;;;8.90;100.00;97435.94;10402777;28;20229;-65
2023/11/20 19:28:22;;;;;;;4.85;4.45;;;8.40;99.90;;;8.80;100.00;97434.56;10401287;28;20229;-65
2023/11/20 19:33:26;;;;;;;7.07;5.88;;;8.30;99.90;;;8.82;100.00;97427.00;10406176;28;20222;-65
2023/11/20 19:38:29;;;;;;;5.63;5.10;;;8.30;99.90;;;8.85;100.00;97428.06;10401730;28;20332;-65
2023/11/20 19:43:33;;;;;;;6.35;4.97;;;8.40;99.90;;;8.83;100.00;97423.66;10399799;28;20263;-66
2023/11/20 19:48:37;;;;;;;7.25;4.32;;;8.30;99.90;;;8.89;100.00;97429.97;10402284;28;20237;-66
2023/11/20 19:53:46;;;;;;;4.88;3.95;;;8.30;99.90;;;8.83;100.00;97424.53;10398049;28;20606;-66
2023/11/20 19:58:49;;;;;;;4.63;3.72;;;8.30;99.90;;;8.79;100.00;97422.63;10399710;28;20252;-66
2023/11/20 20:03:54;;;;;;;5.68;3.90;;;8.30;99.90;;;8.90;100.00;97416.44;10400861;28;20229;-66
2023/11/20 20:08:59;;;;;;;5.75;4.32;;;8.30;99.90;;;8.83;100.00;97411.78;10398012;28;20222;-66
2023/11/20 20:14:04;;;;;;;7.45;4.90;;;8.30;99.90;;;8.80;100.00;97414.16;10400375;28;20308;-65
2023/11/20 20:19:09;;;;;;;9.55;3.70;;;8.30;99.90;;;8.79;100.00;97408.19;10400105;28;20234;-66
2023/11/20 20:24:13;;;;;;;7.25;4.70;;;8.30;99.90;;;8.85;100.00;97401.69;10399980;28;20226;-65
2023/11/20 20:29:16;;;;;;;6.80;4.35;;;8.30;99.90;;;8.81;100.00;97405.72;10400934;28;20311;-65
2023/11/20 20:34:20;;;;;;;7.95;4.75;;;8.30;99.90;;;8.82;100.00;97402.41;10403184;28;20226;-65
2023/11/20 20:39:24;;;;;;;13.75;9.05;;;8.30;99.90;;;8.82;100.00;97401.53;10402539;28;20226;-65
2023/11/20 20:44:27;;;;;;;8.57;5.43;;;8.30;99.90;;;8.82;100.00;97394.75;10410445;28;20236;-66
2023/11/20 20:49:32;;;;;;;10.27;7.07;;;8.30;99.90;;;8.78;100.00;97393.72;10403922;28;20332;-66
2023/11/20 20:54:38;;;;;;;7.25;5.20;;;8.30;99.90;;;8.78;100.00;97380.97;10391743;28;20264;-66
2023/11/20 20:59:42;;;;;;;9.88;4.95;;;8.30;99.90;;;8.81;100.00;97390.44;10392997;28;20248;-65
2023/11/20 21:04:46;;;;;;;5.53;4.07;;;8.20;99.90;;;8.70;100.00;97391.50;10394351;28;20235;-65
2023/11/20 21:09:49;;;;;;;29.38;24.13;;;8.20;99.90;;;8.72;100.00;97389.91;10389449;28;20225;-66
2023/11/20 21:14:53;;;;;;;16.10;11.90;;;8.20;99.90;;;8.70;100.00;97377.13;10388779;28;20298;-66